Time;durP1;ratioP1;P1;durP2;ratioP2;P2;SDS_P1;SDS_P2;PMS_P1;PMS_P2;Temp;Humidity;BMP_temperature;BMP_pressure;BME280_temperature;BME280_humidity;BME280_pressure;Samples;Min_cycle;Max_cycle;Signal;HPM_P1;HPM_P2
2022/03/14 00:01:53;;;;;;;;;;;5.90;43.00;;;;;;5046205;28;19909;-71
2022/03/14 00:04:18;;;;;;;;;;;5.80;43.00;;;;;;5047021;28;19920;-72
2022/03/14 00:06:49;;;;;;;;;;;5.70;43.10;;;;;;5046210;28;20417;-70
2022/03/14 00:09:17;;;;;;;;;;;5.70;43.20;;;;;;5046617;28;20307;-72
2022/03/14 00:11:43;;;;;;;;;;;5.60;43.80;;;;;;5045046;28;20304;-71
2022/03/14 00:14:09;;;;;;;;;;;5.60;44.10;;;;;;5046355;28;19908;-69
2022/03/14 00:16:43;;;;;;;;;;;5.50;44.10;;;;;;5046938;28;19912;-69
2022/03/14 00:19:09;;;;;;;;;;;5.50;44.50;;;;;;5046247;28;20272;-69
2022/03/14 00:21:38;;;;;;;;;;;5.60;44.40;;;;;;5047304;28;19912;-70
2022/03/14 00:24:03;;;;;;;;;;;5.60;44.00;;;;;;5044878;28;19966;-70
2022/03/14 00:26:29;;;;;;;;;;;5.60;44.40;;;;;;5046911;28;20296;-70
2022/03/14 00:28:54;;;;;;;;;;;5.60;44.30;;;;;;5045332;28;19955;-70
2022/03/14 00:31:20;;;;;;;;;;;5.70;44.10;;;;;;5046412;28;20349;-70
2022/03/14 00:33:46;;;;;;;;;;;5.70;44.10;;;;;;5049747;28;19966;-70
2022/03/14 00:36:11;;;;;;;;;;;5.70;44.00;;;;;;5051283;28;19913;-70
2022/03/14 00:38:38;;;;;;;;;;;5.60;44.30;;;;;;5049987;28;19944;-70
2022/03/14 00:41:04;;;;;;;;;;;5.60;43.90;;;;;;5050846;28;19920;-70
2022/03/14 00:43:30;;;;;;;;;;;5.60;43.80;;;;;;5051018;28;19951;-70
2022/03/14 00:45:56;;;;;;;;;;;5.50;44.00;;;;;;5048492;28;19947;-70
2022/03/14 00:48:22;;;;;;;;;;;5.40;44.20;;;;;;5050335;28;19951;-70
2022/03/14 00:50:47;;;;;;;;;;;5.40;44.10;;;;;;5050988;28;20364;-70
2022/03/14 00:53:13;;;;;;;;;;;5.40;44.60;;;;;;5048936;28;20016;-70
2022/03/14 00:55:38;;;;;;;;;;;5.40;44.40;;;;;;5049229;28;19928;-70
2022/03/14 00:58:03;;;;;;;;;;;5.30;44.20;;;;;;5050088;28;20019;-70
2022/03/14 01:00:29;;;;;;;;;;;5.30;44.50;;;;;;5049964;28;19913;-70
2022/03/14 01:02:55;;;;;;;;;;;5.30;44.30;;;;;;5047582;28;19912;-70
2022/03/14 01:05:20;;;;;;;;;;;5.20;44.40;;;;;;5050681;28;19913;-70
2022/03/14 01:07:46;;;;;;;;;;;5.20;44.90;;;;;;5049255;28;20371;-70
2022/03/14 01:10:12;;;;;;;;;;;5.10;45.00;;;;;;5045146;28;19913;-69
2022/03/14 01:12:38;;;;;;;;;;;5.10;44.90;;;;;;5044873;28;19920;-70
2022/03/14 01:15:04;;;;;;;;;;;5.10;45.10;;;;;;5049648;28;19915;-70
2022/03/14 01:17:29;;;;;;;;;;;5.00;44.80;;;;;;5049062;28;19920;-70
2022/03/14 01:19:54;;;;;;;;;;;5.00;45.20;;;;;;5049297;28;19908;-70
2022/03/14 01:22:20;;;;;;;;;;;5.10;45.30;;;;;;5048042;28;19909;-69
2022/03/14 01:24:45;;;;;;;;;;;5.00;45.10;;;;;;5047460;28;19936;-70
2022/03/14 01:27:11;;;;;;;;;;;5.00;44.90;;;;;;5049861;28;20380;-70
2022/03/14 01:29:38;;;;;;;;;;;5.00;45.30;;;;;;5050692;28;20339;-70
2022/03/14 01:32:04;;;;;;;;;;;4.90;45.10;;;;;;5049011;28;20387;-70
2022/03/14 01:34:29;;;;;;;;;;;4.90;45.60;;;;;;5049954;28;20357;-69
2022/03/14 01:36:55;;;;;;;;;;;4.90;45.40;;;;;;5048990;28;19913;-70
2022/03/14 01:39:20;;;;;;;;;;;4.90;45.90;;;;;;5048181;28;20225;-70
2022/03/14 01:41:46;;;;;;;;;;;4.90;45.50;;;;;;5048154;28;20032;-70
2022/03/14 01:44:11;;;;;;;;;;;4.90;45.60;;;;;;5049218;28;19909;-69
2022/03/14 01:46:37;;;;;;;;;;;4.80;45.60;;;;;;5047605;28;19921;-70
2022/03/14 01:49:03;;;;;;;;;;;4.80;45.10;;;;;;5050663;28;19909;-70
2022/03/14 01:51:29;;;;;;;;;;;4.80;45.30;;;;;;5050099;28;20284;-70
2022/03/14 01:53:55;;;;;;;;;;;4.80;45.80;;;;;;5049866;28;20377;-70
2022/03/14 01:56:20;;;;;;;;;;;4.70;45.70;;;;;;5049470;28;19963;-70
2022/03/14 01:58:46;;;;;;;;;;;4.70;45.80;;;;;;5049508;28;19959;-70
2022/03/14 02:01:12;;;;;;;;;;;4.70;45.90;;;;;;5049534;28;19909;-70
2022/03/14 02:03:37;;;;;;;;;;;4.60;46.10;;;;;;5048966;28;19923;-70
2022/03/14 02:06:03;;;;;;;;;;;4.60;46.40;;;;;;5048824;28;19909;-70
2022/03/14 02:08:28;;;;;;;;;;;4.60;46.40;;;;;;5048337;28;19916;-70
2022/03/14 02:10:54;;;;;;;;;;;4.60;45.70;;;;;;5048394;28;19908;-70
2022/03/14 02:13:19;;;;;;;;;;;4.60;46.10;;;;;;5047913;28;19999;-70
2022/03/14 02:15:46;;;;;;;;;;;4.60;46.00;;;;;;5046883;28;20496;-70
2022/03/14 02:18:11;;;;;;;;;;;4.60;45.90;;;;;;5049115;28;19915;-70
2022/03/14 02:20:37;;;;;;;;;;;4.60;45.90;;;;;;5048793;28;19909;-69
2022/03/14 02:23:02;;;;;;;;;;;4.60;46.00;;;;;;5047169;28;20436;-69
2022/03/14 02:25:28;;;;;;;;;;;4.60;45.90;;;;;;5047818;28;20246;-69
2022/03/14 02:27:53;;;;;;;;;;;4.60;46.40;;;;;;5047749;28;20364;-70
2022/03/14 02:30:18;;;;;;;;;;;4.60;45.90;;;;;;5047320;28;20011;-70
2022/03/14 02:32:45;;;;;;;;;;;4.60;46.10;;;;;;5047381;28;19951;-70
2022/03/14 02:35:10;;;;;;;;;;;4.50;45.80;;;;;;5049197;28;19928;-70
2022/03/14 02:37:36;;;;;;;;;;;4.50;45.90;;;;;;5047036;28;19913;-70
2022/03/14 02:40:02;;;;;;;;;;;4.50;46.00;;;;;;5048458;28;19955;-70
2022/03/14 02:42:28;;;;;;;;;;;4.50;46.30;;;;;;5047904;28;19909;-70
2022/03/14 02:44:53;;;;;;;;;;;4.40;46.20;;;;;;5048595;28;20254;-70
2022/03/14 02:47:19;;;;;;;;;;;4.30;46.30;;;;;;5045830;28;19920;-70
2022/03/14 02:49:44;;;;;;;;;;;4.30;46.50;;;;;;5046738;28;19961;-70
2022/03/14 02:52:10;;;;;;;;;;;4.30;46.80;;;;;;5048080;28;20430;-70
2022/03/14 02:54:36;;;;;;;;;;;4.20;46.70;;;;;;5047613;28;19909;-70
2022/03/14 02:57:01;;;;;;;;;;;4.20;46.80;;;;;;5047489;28;19908;-70
2022/03/14 02:59:27;;;;;;;;;;;4.20;46.90;;;;;;5048135;28;19965;-70
2022/03/14 03:01:53;;;;;;;;;;;4.20;47.20;;;;;;5046422;28;19948;-70
2022/03/14 03:04:18;;;;;;;;;;;4.20;47.20;;;;;;5046037;28;19913;-70
2022/03/14 03:06:45;;;;;;;;;;;4.10;47.00;;;;;;5047705;28;19912;-70
2022/03/14 03:09:11;;;;;;;;;;;4.10;47.00;;;;;;5046934;28;19909;-70
2022/03/14 03:11:36;;;;;;;;;;;4.10;47.10;;;;;;5046731;28;19912;-70
2022/03/14 03:14:02;;;;;;;;;;;4.00;47.20;;;;;;5047753;28;19984;-70
2022/03/14 03:16:27;;;;;;;;;;;4.00;47.40;;;;;;5046661;28;20357;-70
2022/03/14 03:18:53;;;;;;;;;;;3.90;47.50;;;;;;5047728;28;19909;-70
2022/03/14 03:21:19;;;;;;;;;;;3.90;47.60;;;;;;5044051;28;19928;-70
2022/03/14 03:23:44;;;;;;;;;;;3.90;47.70;;;;;;5046543;28;20508;-70
2022/03/14 03:26:10;;;;;;;;;;;3.80;47.70;;;;;;5047014;28;19919;-70
2022/03/14 03:28:35;;;;;;;;;;;3.80;47.90;;;;;;5048346;28;20308;-70
2022/03/14 03:31:05;;;;;;;;;;;3.80;48.10;;;;;;5046481;28;19958;-70
2022/03/14 03:33:30;;;;;;;;;;;3.70;48.40;;;;;;5048048;28;19909;-69
2022/03/14 03:35:55;;;;;;;;;;;3.70;48.40;;;;;;5046989;28;19923;-69
2022/03/14 03:38:21;;;;;;;;;;;3.70;48.40;;;;;;5048048;28;19970;-69
2022/03/14 03:40:46;;;;;;;;;;;3.60;48.50;;;;;;5049406;28;19966;-70
2022/03/14 03:43:12;;;;;;;;;;;3.60;48.60;;;;;;5048240;28;19934;-69
2022/03/14 03:45:37;;;;;;;;;;;3.50;48.70;;;;;;5047784;28;19993;-70
2022/03/14 03:48:03;;;;;;;;;;;3.50;48.90;;;;;;5048406;28;19912;-70
2022/03/14 03:50:28;;;;;;;;;;;3.40;49.50;;;;;;5046029;28;19912;-69
2022/03/14 03:52:53;;;;;;;;;;;3.40;49.50;;;;;;5047827;28;19966;-69
2022/03/14 03:55:19;;;;;;;;;;;3.40;49.60;;;;;;5045764;28;20276;-70
2022/03/14 03:57:44;;;;;;;;;;;3.30;49.60;;;;;;5047943;28;20277;-70
2022/03/14 04:00:12;;;;;;;;;;;3.40;50.10;;;;;;5046996;28;20381;-70
2022/03/14 04:02:39;;;;;;;;;;;3.40;50.50;;;;;;5048805;28;19978;-70
2022/03/14 04:05:05;;;;;;;;;;;3.30;50.30;;;;;;5046778;28;19963;-69
2022/03/14 04:07:34;;;;;;;;;;;3.30;50.50;;;;;;5050814;28;20319;-69
2022/03/14 04:10:00;;;;;;;;;;;3.20;50.70;;;;;;5050295;28;19913;-69
2022/03/14 04:12:26;;;;;;;;;;;3.20;50.90;;;;;;5051629;28;20004;-70
2022/03/14 04:14:52;;;;;;;;;;;3.20;50.70;;;;;;5050678;28;19912;-70
2022/03/14 04:17:18;;;;;;;;;;;3.10;50.80;;;;;;5049072;28;19920;-70
2022/03/14 04:19:44;;;;;;;;;;;3.10;51.10;;;;;;5050999;28;19912;-70
2022/03/14 04:22:10;;;;;;;;;;;3.10;51.20;;;;;;5049490;28;19999;-70
2022/03/14 04:24:36;;;;;;;;;;;3.10;51.50;;;;;;5050524;28;19916;-70
2022/03/14 04:27:01;;;;;;;;;;;3.00;51.80;;;;;;5050690;28;19920;-70
2022/03/14 04:29:28;;;;;;;;;;;3.00;51.60;;;;;;5051352;28;20316;-69
2022/03/14 04:31:54;;;;;;;;;;;3.00;51.50;;;;;;5049939;28;19931;-69
2022/03/14 04:34:19;;;;;;;;;;;3.00;52.40;;;;;;5049939;28;20396;-69
2022/03/14 04:36:45;;;;;;;;;;;3.00;51.90;;;;;;5052184;28;20392;-70
2022/03/14 04:39:10;;;;;;;;;;;3.00;52.10;;;;;;5049502;28;20396;-70
2022/03/14 04:41:37;;;;;;;;;;;3.00;52.10;;;;;;5050441;28;19966;-70
2022/03/14 04:44:04;;;;;;;;;;;2.90;52.30;;;;;;5050445;28;19966;-69
2022/03/14 04:46:29;;;;;;;;;;;2.90;52.40;;;;;;5048779;28;19908;-70
2022/03/14 04:48:55;;;;;;;;;;;2.80;52.70;;;;;;5049747;28;19908;-70
2022/03/14 04:53:49;;;;;;;;;;;2.70;53.20;;;;;;5060731;22;20320;-53
2022/03/14 04:56:14;;;;;;;;;;;2.70;53.40;;;;;;5034450;28;19936;-56
2022/03/14 04:58:39;;;;;;;;;;;2.70;53.10;;;;;;5034060;28;19912;-54
2022/03/14 05:01:05;;;;;;;;;;;2.60;53.20;;;;;;5032892;28;19913;-53
2022/03/14 05:03:30;;;;;;;;;;;2.60;53.30;;;;;;5029864;28;19935;-56
2022/03/14 05:05:56;;;;;;;;;;;2.60;53.30;;;;;;5031422;28;19923;-56
2022/03/14 05:08:22;;;;;;;;;;;2.60;53.80;;;;;;5032343;28;19925;-57
2022/03/14 05:10:48;;;;;;;;;;;2.60;54.40;;;;;;5029281;28;19956;-56
2022/03/14 05:13:13;;;;;;;;;;;2.60;54.40;;;;;;5035817;28;19944;-57
2022/03/14 05:15:38;;;;;;;;;;;2.60;55.10;;;;;;5041607;28;19919;-57
2022/03/14 05:18:04;;;;;;;;;;;2.60;54.70;;;;;;5034302;28;20004;-53
2022/03/14 05:20:29;;;;;;;;;;;2.60;54.90;;;;;;5026965;28;20308;-54
2022/03/14 05:22:55;;;;;;;;;;;2.60;55.20;;;;;;5029800;28;19927;-57
2022/03/14 05:25:22;;;;;;;;;;;2.50;54.90;;;;;;5038746;28;19954;-55
2022/03/14 05:27:48;;;;;;;;;;;2.50;55.20;;;;;;5035630;28;20285;-55
2022/03/14 05:30:14;;;;;;;;;;;2.50;55.60;;;;;;5031525;28;19909;-56
2022/03/14 05:32:40;;;;;;;;;;;2.40;55.90;;;;;;5032716;28;19944;-55
2022/03/14 05:35:06;;;;;;;;;;;2.40;56.30;;;;;;5032353;28;19955;-54
2022/03/14 05:37:32;;;;;;;;;;;2.40;56.80;;;;;;5030846;28;20291;-51
2022/03/14 05:39:58;;;;;;;;;;;2.30;57.20;;;;;;5029092;28;19999;-53
2022/03/14 05:42:25;;;;;;;;;;;2.40;57.60;;;;;;5029740;28;19944;-57
2022/03/14 05:44:51;;;;;;;;;;;2.30;58.20;;;;;;5032547;28;20428;-54
2022/03/14 05:47:17;;;;;;;;;;;2.30;57.90;;;;;;5028774;28;19912;-51
2022/03/14 05:49:42;;;;;;;;;;;2.30;58.50;;;;;;5037181;28;20308;-56
2022/03/14 05:52:08;;;;;;;;;;;2.20;58.60;;;;;;5029539;28;19913;-56
2022/03/14 05:54:36;;;;;;;;;;;2.20;59.50;;;;;;5035128;28;20335;-53
2022/03/14 05:57:02;;;;;;;;;;;2.20;59.20;;;;;;5032553;28;19912;-55
2022/03/14 05:59:27;;;;;;;;;;;2.10;59.00;;;;;;5033218;28;20254;-51
2022/03/14 06:01:53;;;;;;;;;;;2.10;60.00;;;;;;5036752;28;19920;-52
2022/03/14 06:04:18;;;;;;;;;;;2.10;60.70;;;;;;5017549;28;19913;-55
2022/03/14 06:06:44;;;;;;;;;;;2.10;60.90;;;;;;5035653;28;20609;-52
2022/03/14 06:09:09;;;;;;;;;;;2.10;60.80;;;;;;5035304;28;19999;-52
2022/03/14 06:11:38;;;;;;;;;;;2.10;61.00;;;;;;5030005;28;19908;-56
2022/03/14 06:14:05;;;;;;;;;;;2.10;61.10;;;;;;5029110;28;19913;-54
2022/03/14 06:16:30;;;;;;;;;;;2.10;61.60;;;;;;5031182;28;19955;-53
2022/03/14 06:18:56;;;;;;;;;;;2.00;62.30;;;;;;5032572;28;19912;-51
2022/03/14 06:21:21;;;;;;;;;;;2.00;62.60;;;;;;5028758;28;19912;-55
2022/03/14 06:23:47;;;;;;;;;;;2.10;63.50;;;;;;5029327;28;19923;-53
2022/03/14 06:26:13;;;;;;;;;;;2.20;63.60;;;;;;5030937;28;19915;-55
2022/03/14 06:28:38;;;;;;;;;;;2.20;63.80;;;;;;5030635;28;19913;-55
2022/03/14 06:31:04;;;;;;;;;;;2.20;64.60;;;;;;5029929;28;19912;-55
2022/03/14 06:33:29;;;;;;;;;;;2.30;64.60;;;;;;5037447;28;19912;-56
2022/03/14 06:35:54;;;;;;;;;;;2.40;64.60;;;;;;5030601;28;19913;-56
2022/03/14 06:38:20;;;;;;;;;;;2.60;64.70;;;;;;5030474;28;19919;-55
2022/03/14 06:40:47;;;;;;;;;;;2.60;64.30;;;;;;5033470;28;19999;-53
2022/03/14 06:43:13;;;;;;;;;;;2.60;64.20;;;;;;5034014;28;19909;-53
2022/03/14 06:45:39;;;;;;;;;;;2.70;64.50;;;;;;5037863;28;19913;-55
2022/03/14 06:48:06;;;;;;;;;;;2.80;64.50;;;;;;5034236;28;19916;-52
2022/03/14 06:50:32;;;;;;;;;;;2.90;64.70;;;;;;5033512;28;19912;-56
2022/03/14 06:52:58;;;;;;;;;;;3.00;64.60;;;;;;5033223;28;19916;-56
2022/03/14 06:55:23;;;;;;;;;;;3.10;64.40;;;;;;5027535;28;19912;-55
2022/03/14 06:57:49;;;;;;;;;;;3.20;64.10;;;;;;5030913;28;19999;-55
2022/03/14 07:00:15;;;;;;;;;;;3.20;64.00;;;;;;5034975;28;19916;-54
2022/03/14 07:02:40;;;;;;;;;;;3.30;63.40;;;;;;5030846;28;20353;-55
2022/03/14 07:05:06;;;;;;;;;;;3.30;63.50;;;;;;5029909;28;19940;-52
2022/03/14 07:07:32;;;;;;;;;;;3.40;63.00;;;;;;5034652;28;19913;-55
2022/03/14 07:09:58;;;;;;;;;;;3.50;63.00;;;;;;5035911;28;19921;-55
2022/03/14 07:12:24;;;;;;;;;;;3.60;63.30;;;;;;5033616;28;20259;-55
2022/03/14 07:14:49;;;;;;;;;;;3.60;61.90;;;;;;5032200;28;20335;-55
2022/03/14 07:17:15;;;;;;;;;;;3.70;61.80;;;;;;5030917;28;19913;-55
2022/03/14 07:19:45;;;;;;;;;;;3.70;62.00;;;;;;5031887;28;19909;-55
2022/03/14 07:22:11;;;;;;;;;;;3.80;62.20;;;;;;5029850;28;20015;-56
2022/03/14 07:24:37;;;;;;;;;;;3.90;62.10;;;;;;5036478;28;19913;-56
2022/03/14 07:27:02;;;;;;;;;;;4.00;61.70;;;;;;5029121;28;19913;-54
2022/03/14 07:29:29;;;;;;;;;;;4.20;61.50;;;;;;5034914;28;19924;-55
2022/03/14 07:31:54;;;;;;;;;;;4.30;61.20;;;;;;5033911;28;19909;-52
2022/03/14 07:34:20;;;;;;;;;;;4.40;61.40;;;;;;5028012;28;19913;-56
2022/03/14 07:36:46;;;;;;;;;;;4.60;61.00;;;;;;5030924;28;19919;-55
2022/03/14 07:39:11;;;;;;;;;;;4.70;60.70;;;;;;5032819;28;19951;-56
2022/03/14 07:41:37;;;;;;;;;;;4.80;59.50;;;;;;5029046;28;19945;-54
2022/03/14 07:44:03;;;;;;;;;;;4.90;59.40;;;;;;5035214;28;19919;-55
2022/03/14 07:46:29;;;;;;;;;;;5.00;59.10;;;;;;5028912;28;19917;-52
2022/03/14 07:48:54;;;;;;;;;;;5.10;58.90;;;;;;5032228;28;19909;-55
2022/03/14 07:51:20;;;;;;;;;;;5.20;58.70;;;;;;5033989;28;19912;-56
2022/03/14 07:53:45;;;;;;;;;;;5.30;58.40;;;;;;5029306;28;19917;-52
2022/03/14 07:56:13;;;;;;;;;;;5.30;57.50;;;;;;5029333;28;20373;-56
2022/03/14 07:58:39;;;;;;;;;;;5.40;57.70;;;;;;5033434;28;19952;-55
2022/03/14 08:01:05;;;;;;;;;;;5.50;58.10;;;;;;5034389;28;19913;-56
2022/03/14 08:03:31;;;;;;;;;;;5.60;58.10;;;;;;5032720;28;19916;-55
2022/03/14 08:06:00;;;;;;;;;;;5.60;57.60;;;;;;5035583;28;19916;-55
2022/03/14 08:08:28;;;;;;;;;;;5.70;57.50;;;;;;5033064;28;20016;-56
2022/03/14 08:10:54;;;;;;;;;;;5.70;57.90;;;;;;5032915;28;19920;-55
2022/03/14 08:13:20;;;;;;;;;;;5.80;57.80;;;;;;5034335;28;19947;-56
2022/03/14 08:15:46;;;;;;;;;;;5.80;57.10;;;;;;5037821;28;19912;-55
2022/03/14 08:18:13;;;;;;;;;;;5.90;57.50;;;;;;5031968;28;19966;-56
2022/03/14 08:20:38;;;;;;;;;;;5.90;57.50;;;;;;5032697;28;19909;-54
2022/03/14 08:23:04;;;;;;;;;;;6.00;57.60;;;;;;5030886;28;19916;-55
2022/03/14 08:25:30;;;;;;;;;;;6.10;57.90;;;;;;5033294;28;19939;-56
2022/03/14 08:27:56;;;;;;;;;;;6.20;57.50;;;;;;5033081;28;20342;-56
2022/03/14 08:30:22;;;;;;;;;;;6.30;57.50;;;;;;5033807;28;20007;-56
2022/03/14 08:32:48;;;;;;;;;;;6.50;56.60;;;;;;5036674;28;19921;-55
2022/03/14 08:35:18;;;;;;;;;;;6.70;56.30;;;;;;5018666;28;19952;-54
2022/03/14 08:37:44;;;;;;;;;;;6.80;56.10;;;;;;5032827;28;19917;-56
2022/03/14 08:40:10;;;;;;;;;;;7.00;55.80;;;;;;5035028;28;19916;-57
2022/03/14 08:42:36;;;;;;;;;;;7.20;55.90;;;;;;5033213;28;20286;-54
2022/03/14 08:45:02;;;;;;;;;;;7.40;55.00;;;;;;5029310;28;20027;-54
2022/03/14 08:47:28;;;;;;;;;;;7.50;54.90;;;;;;5036677;28;20003;-53
2022/03/14 08:49:53;;;;;;;;;;;7.70;54.50;;;;;;5032324;28;19916;-54
2022/03/14 08:52:19;;;;;;;;;;;7.80;54.10;;;;;;5036377;28;20688;-51
2022/03/14 08:54:45;;;;;;;;;;;7.90;53.40;;;;;;5038348;28;19909;-53
2022/03/14 08:57:10;;;;;;;;;;;8.00;53.90;;;;;;5035124;28;19963;-53
2022/03/14 08:59:36;;;;;;;;;;;8.20;53.90;;;;;;5038616;28;19912;-52
2022/03/14 09:02:01;;;;;;;;;;;8.40;53.70;;;;;;5041233;28;19908;-53
2022/03/14 09:04:27;;;;;;;;;;;8.50;53.20;;;;;;5038236;28;19948;-55
2022/03/14 09:06:52;;;;;;;;;;;8.70;53.00;;;;;;5035730;28;19913;-56
2022/03/14 09:09:18;;;;;;;;;;;8.80;53.30;;;;;;5037610;28;20176;-54
2022/03/14 09:11:44;;;;;;;;;;;9.00;53.50;;;;;;5036385;28;19919;-54
2022/03/14 09:14:10;;;;;;;;;;;9.20;53.20;;;;;;5036867;28;19954;-55
2022/03/14 09:16:35;;;;;;;;;;;9.30;53.20;;;;;;5035171;28;19916;-55
2022/03/14 09:19:01;;;;;;;;;;;9.30;53.00;;;;;;5035276;28;20289;-54
2022/03/14 09:21:27;;;;;;;;;;;9.40;52.70;;;;;;5036633;28;20006;-56
2022/03/14 09:23:53;;;;;;;;;;;9.40;52.80;;;;;;5037073;28;19916;-56
2022/03/14 09:26:19;;;;;;;;;;;9.50;53.40;;;;;;5036260;28;19917;-55
2022/03/14 09:28:44;;;;;;;;;;;9.60;52.70;;;;;;5035865;28;20278;-55
2022/03/14 09:31:13;;;;;;;;;;;9.70;53.50;;;;;;5031223;28;19913;-56
2022/03/14 09:33:39;;;;;;;;;;;9.70;53.00;;;;;;5037823;28;20362;-55
2022/03/14 09:36:05;;;;;;;;;;;9.70;53.40;;;;;;5037592;28;19905;-54
2022/03/14 09:38:31;;;;;;;;;;;9.80;53.70;;;;;;5035925;28;20374;-54
2022/03/14 09:41:00;;;;;;;;;;;9.80;53.90;;;;;;5039139;28;19908;-55
2022/03/14 09:43:27;;;;;;;;;;;9.90;54.10;;;;;;5035683;28;20281;-56
2022/03/14 09:45:52;;;;;;;;;;;10.00;54.20;;;;;;5034292;28;19913;-56
2022/03/14 09:48:18;;;;;;;;;;;10.10;54.60;;;;;;5032357;28;19912;-55
2022/03/14 09:50:44;;;;;;;;;;;10.10;54.70;;;;;;5035856;28;19912;-56
2022/03/14 09:53:11;;;;;;;;;;;10.10;54.80;;;;;;5035583;28;19916;-56
2022/03/14 09:55:46;;;;;;;;;;;10.20;55.30;;;;;;5039451;28;19908;-55
2022/03/14 09:58:13;;;;;;;;;;;10.20;55.50;;;;;;5036315;28;19950;-56
2022/03/14 10:00:38;;;;;;;;;;;10.20;56.60;;;;;;5035247;28;20327;-55
2022/03/14 10:03:04;;;;;;;;;;;10.20;56.90;;;;;;5036684;28;20035;-55
2022/03/14 10:05:30;;;;;;;;;;;10.20;58.30;;;;;;5037751;28;19954;-56
2022/03/14 10:07:55;;;;;;;;;;;10.20;58.50;;;;;;5035888;28;20039;-55
2022/03/14 10:10:21;;;;;;;;;;;10.20;59.10;;;;;;5033325;28;19927;-55
2022/03/14 10:12:53;;;;;;;;;;;10.20;59.60;;;;;;5035748;28;20393;-54
2022/03/14 10:15:19;;;;;;;;;;;10.30;60.50;;;;;;5030502;28;20128;-56
2022/03/14 10:17:44;;;;;;;;;;;10.30;60.40;;;;;;5036893;28;20098;-55
2022/03/14 10:20:10;;;;;;;;;;;10.50;61.10;;;;;;5032160;28;19987;-56
2022/03/14 10:22:36;;;;;;;;;;;10.50;61.20;;;;;;5032195;28;19913;-55
2022/03/14 10:25:03;;;;;;;;;;;10.60;61.90;;;;;;5036019;28;19909;-55
2022/03/14 10:27:29;;;;;;;;;;;10.70;62.00;;;;;;5035511;28;19996;-55
2022/03/14 10:29:54;;;;;;;;;;;10.70;63.00;;;;;;5040022;28;20554;-55
2022/03/14 10:32:30;;;;;;;;;;;10.80;63.20;;;;;;5031200;28;19912;-56
2022/03/14 10:35:05;;;;;;;;;;;10.90;62.80;;;;;;5031171;28;19913;-55
2022/03/14 10:37:32;;;;;;;;;;;10.90;61.60;;;;;;5030861;28;19967;-55
2022/03/14 10:40:00;;;;;;;;;;;11.00;61.20;;;;;;5037437;28;20357;-55
2022/03/14 10:42:26;;;;;;;;;;;11.10;61.20;;;;;;5035239;28;20275;-55
2022/03/14 10:44:52;;;;;;;;;;;11.20;61.50;;;;;;5035152;28;19916;-54
2022/03/14 10:47:19;;;;;;;;;;;11.10;60.10;;;;;;5032146;28;19948;-55
2022/03/14 10:49:45;;;;;;;;;;;11.10;59.90;;;;;;5034267;28;19936;-56
2022/03/14 10:52:13;;;;;;;;;;;11.10;60.10;;;;;;5052740;22;20274;-52
2022/03/14 10:54:39;;;;;;;;;;;11.10;60.60;;;;;;5033787;28;19963;-56
2022/03/14 10:57:05;;;;;;;;;;;11.10;60.90;;;;;;5029699;28;19948;-52
2022/03/14 10:59:37;;;;;;;;;;;11.10;60.80;;;;;;5031002;28;19955;-49
2022/03/14 11:02:08;;;;;;;;;;;11.20;61.80;;;;;;5024795;28;19913;-52
2022/03/14 11:04:52;;;;;;;;;;;11.20;62.70;;;;;;5034036;28;19924;-53
2022/03/14 11:07:19;;;;;;;;;;;11.20;63.20;;;;;;5029826;28;20448;-49
2022/03/14 11:09:49;;;;;;;;;;;11.30;70.20;;;;;;5036400;28;19916;-48
2022/03/14 11:12:15;;;;;;;;;;;11.30;76.30;;;;;;5033897;28;20011;-51
2022/03/14 11:14:41;;;;;;;;;;;11.40;81.50;;;;;;5029987;28;19955;-52
2022/03/14 11:17:14;;;;;;;;;;;11.50;85.30;;;;;;5035542;28;19905;-52
2022/03/14 11:19:40;;;;;;;;;;;11.60;90.60;;;;;;5029472;28;19956;-54
2022/03/14 11:22:07;;;;;;;;;;;11.60;91.10;;;;;;5035265;28;19913;-52
2022/03/14 11:24:33;;;;;;;;;;;11.70;91.60;;;;;;5031483;28;20377;-53
2022/03/14 11:26:59;;;;;;;;;;;11.70;92.70;;;;;;5031505;28;19913;-53
2022/03/14 11:29:26;;;;;;;;;;;11.80;93.60;;;;;;5029587;28;19948;-52
2022/03/14 11:31:52;;;;;;;;;;;11.80;93.20;;;;;;5035398;28;19971;-52
2022/03/14 11:34:17;;;;;;;;;;;11.80;93.00;;;;;;5029419;28;19909;-54
2022/03/14 11:36:43;;;;;;;;;;;11.80;92.50;;;;;;5034593;28;19905;-55
2022/03/14 11:39:09;;;;;;;;;;;11.70;92.50;;;;;;5032938;28;20019;-50
2022/03/14 11:41:38;;;;;;;;;;;11.80;92.00;;;;;;5026524;28;19904;-51
2022/03/14 11:44:05;;;;;;;;;;;11.90;92.50;;;;;;5035173;28;19923;-54
2022/03/14 11:46:31;;;;;;;;;;;11.90;92.40;;;;;;5032871;28;19927;-53
2022/03/14 11:49:16;;;;;;;;;;;12.00;92.30;;;;;;5027303;28;20348;-54
2022/03/14 11:51:41;;;;;;;;;;;12.00;92.50;;;;;;5035423;28;19909;-51
2022/03/14 11:54:13;;;;;;;;;;;12.00;93.70;;;;;;5028178;28;19917;-52
2022/03/14 11:56:51;;;;;;;;;;;12.00;93.80;;;;;;5023689;28;19952;-52
2022/03/14 11:59:25;;;;;;;;;;;12.00;95.20;;;;;;5025682;28;20385;-51
2022/03/14 12:01:51;;;;;;;;;;;11.90;95.80;;;;;;5028011;28;19944;-53
2022/03/14 12:04:28;;;;;;;;;;;11.80;96.10;;;;;;5028256;28;20005;-49
2022/03/14 12:06:55;;;;;;;;;;;11.60;96.50;;;;;;5029854;28;20228;-53
2022/03/14 12:09:23;;;;;;;;;;;11.40;97.20;;;;;;5028254;28;19916;-51
2022/03/14 12:11:49;;;;;;;;;;;11.40;97.40;;;;;;5031971;28;19909;-51
2022/03/14 12:14:51;;;;;;;;;;;11.20;97.70;;;;;;5034482;28;20388;-53
2022/03/14 12:17:17;;;;;;;;;;;11.10;98.10;;;;;;4991231;28;19914;-49
2022/03/14 12:19:48;;;;;;;;;;;11.00;98.10;;;;;;5026683;28;19916;-54
2022/03/14 12:22:16;;;;;;;;;;;10.90;98.50;;;;;;5032515;28;20027;-50
2022/03/14 12:24:46;;;;;;;;;;;10.90;99.10;;;;;;5031556;28;19908;-55
2022/03/14 12:27:21;;;;;;;;;;;10.80;99.10;;;;;;5028650;28;19924;-49
2022/03/14 12:29:48;;;;;;;;;;;10.70;99.40;;;;;;5037038;28;19947;-54
2022/03/14 12:32:22;;;;;;;;;;;10.70;99.40;;;;;;5032790;28;19912;-54
2022/03/14 12:35:11;;;;;;;;;;;10.70;99.80;;;;;;5034321;28;19923;-51
2022/03/14 12:37:40;;;;;;;;;;;10.60;99.70;;;;;;5034125;28;20010;-51
2022/03/14 12:40:13;;;;;;;;;;;10.50;99.90;;;;;;5031110;28;19913;-54
2022/03/14 12:42:40;;;;;;;;;;;10.40;99.90;;;;;;5034941;28;19909;-54
2022/03/14 12:45:18;;;;;;;;;;;10.40;99.90;;;;;;5034854;28;20631;-52
2022/03/14 12:48:05;;;;;;;;;;;10.30;99.90;;;;;;5030036;28;19920;-54
2022/03/14 12:50:43;;;;;;;;;;;10.20;99.90;;;;;;5035629;28;19916;-51
2022/03/14 12:53:09;;;;;;;;;;;10.10;99.90;;;;;;5034724;28;20288;-50
2022/03/14 12:55:35;;;;;;;;;;;10.00;99.90;;;;;;5031917;28;19909;-52
2022/03/14 12:58:01;;;;;;;;;;;10.00;99.90;;;;;;5034532;28;20463;-53
2022/03/14 13:00:26;;;;;;;;;;;9.90;99.90;;;;;;5028366;28;19913;-53
2022/03/14 13:02:52;;;;;;;;;;;9.90;99.90;;;;;;5030198;28;19927;-51
2022/03/14 13:05:18;;;;;;;;;;;9.90;99.90;;;;;;5027222;28;20260;-50
2022/03/14 13:07:44;;;;;;;;;;;9.90;99.90;;;;;;5034916;28;19916;-53
2022/03/14 13:10:09;;;;;;;;;;;9.80;99.90;;;;;;5025881;28;19916;-54
2022/03/14 13:12:35;;;;;;;;;;;9.80;99.90;;;;;;5032070;28;19913;-55
2022/03/14 13:15:07;;;;;;;;;;;9.80;99.90;;;;;;5033532;28;19956;-49
2022/03/14 13:17:33;;;;;;;;;;;9.70;99.90;;;;;;5031137;28;19991;-53
2022/03/14 13:19:59;;;;;;;;;;;9.70;99.90;;;;;;5030398;28;20023;-52
2022/03/14 13:22:24;;;;;;;;;;;9.70;99.90;;;;;;5032657;28;19913;-52
2022/03/14 13:24:50;;;;;;;;;;;9.70;99.90;;;;;;5035252;28;20444;-52
2022/03/14 13:27:25;;;;;;;;;;;9.60;99.90;;;;;;5032960;28;19917;-53
2022/03/14 13:29:51;;;;;;;;;;;9.60;99.90;;;;;;5039761;28;19919;-55
2022/03/14 13:32:18;;;;;;;;;;;9.60;99.90;;;;;;5027513;28;19908;-52
2022/03/14 13:34:45;;;;;;;;;;;9.50;99.90;;;;;;5029346;28;20282;-51
2022/03/14 13:37:11;;;;;;;;;;;9.50;99.90;;;;;;5029213;28;20211;-52
2022/03/14 13:39:36;;;;;;;;;;;9.50;99.90;;;;;;5032847;28;19916;-51
2022/03/14 13:42:02;;;;;;;;;;;9.50;99.90;;;;;;5028471;28;19995;-54
2022/03/14 13:44:27;;;;;;;;;;;9.50;99.90;;;;;;5033751;28;19948;-54
2022/03/14 13:46:57;;;;;;;;;;;9.40;99.90;;;;;;5030131;28;19916;-55
2022/03/14 13:49:24;;;;;;;;;;;9.40;99.90;;;;;;5032626;28;20008;-53
2022/03/14 13:51:59;;;;;;;;;;;9.40;99.90;;;;;;5027628;28;19909;-53
2022/03/14 13:54:29;;;;;;;;;;;9.30;99.90;;;;;;5029388;28;19929;-50
2022/03/14 13:56:58;;;;;;;;;;;9.30;99.90;;;;;;5029965;28;19958;-54
2022/03/14 13:59:32;;;;;;;;;;;9.30;99.90;;;;;;5030044;28;19917;-50
2022/03/14 14:02:05;;;;;;;;;;;9.30;99.90;;;;;;5025291;28;20328;-52
2022/03/14 14:04:44;;;;;;;;;;;9.30;99.90;;;;;;5033972;28;19919;-54
2022/03/14 14:07:14;;;;;;;;;;;9.20;99.90;;;;;;5036677;28;19940;-53
2022/03/14 14:09:40;;;;;;;;;;;9.20;99.90;;;;;;5032131;28;19909;-53
2022/03/14 14:12:08;;;;;;;;;;;9.20;99.90;;;;;;5018231;28;19970;-52
2022/03/14 14:14:34;;;;;;;;;;;9.20;99.90;;;;;;5034079;28;19913;-53
2022/03/14 14:17:17;;;;;;;;;;;9.20;99.90;;;;;;5033019;28;19909;-53
2022/03/14 14:20:21;;;;;;;;;;;9.20;99.90;;;;;;5031728;28;19998;-55
2022/03/14 14:22:57;;;;;;;;;;;9.20;99.90;;;;;;4984075;28;19910;-53
2022/03/14 14:25:30;;;;;;;;;;;9.10;99.90;;;;;;5029428;28;19913;-53
2022/03/14 14:28:02;;;;;;;;;;;9.10;99.90;;;;;;5037204;28;19994;-54